sensor_id;sensor_type;location;lat;lon;timestamp;P1;durP1;ratioP1;P2;durP2;ratioP2
1404;SDS011;697;51.114;6.542;2023-03-16T00:01:24;4.83;;;3.67;;
1404;SDS011;697;51.114;6.542;2023-03-16T00:03:51;3.80;;;3.47;;
1404;SDS011;697;51.114;6.542;2023-03-16T00:06:18;4.40;;;3.77;;
1404;SDS011;697;51.114;6.542;2023-03-16T00:08:46;4.17;;;3.70;;
1404;SDS011;697;51.114;6.542;2023-03-16T00:11:13;3.93;;;3.53;;
1404;SDS011;697;51.114;6.542;2023-03-16T00:13:40;4.20;;;3.50;;
1404;SDS011;697;51.114;6.542;2023-03-16T00:16:07;4.17;;;3.77;;
1404;SDS011;697;51.114;6.542;2023-03-16T00:18:34;3.63;;;3.33;;
1404;SDS011;697;51.114;6.542;2023-03-16T00:21:03;5.53;;;3.43;;
1404;SDS011;697;51.114;6.542;2023-03-16T00:23:30;6.23;;;3.53;;
1404;SDS011;697;51.114;6.542;2023-03-16T00:26:01;5.23;;;4.00;;
1404;SDS011;697;51.114;6.542;2023-03-16T00:28:31;3.23;;;2.93;;
1404;SDS011;697;51.114;6.542;2023-03-16T00:30:59;4.10;;;3.70;;
1404;SDS011;697;51.114;6.542;2023-03-16T00:33:26;3.87;;;3.23;;
1404;SDS011;697;51.114;6.542;2023-03-16T00:35:53;5.80;;;2.90;;
1404;SDS011;697;51.114;6.542;2023-03-16T00:38:27;3.60;;;3.13;;
1404;SDS011;697;51.114;6.542;2023-03-16T00:40:54;3.47;;;3.17;;
1404;SDS011;697;51.114;6.542;2023-03-16T00:43:22;4.10;;;3.67;;
1404;SDS011;697;51.114;6.542;2023-03-16T00:45:56;3.37;;;3.07;;
1404;SDS011;697;51.114;6.542;2023-03-16T00:48:25;3.23;;;2.57;;
1404;SDS011;697;51.114;6.542;2023-03-16T00:50:51;3.30;;;3.00;;
1404;SDS011;697;51.114;6.542;2023-03-16T00:53:18;5.00;;;3.00;;
1404;SDS011;697;51.114;6.542;2023-03-16T00:55:46;3.27;;;2.80;;
1404;SDS011;697;51.114;6.542;2023-03-16T00:58:12;2.63;;;2.40;;
1404;SDS011;697;51.114;6.542;2023-03-16T01:00:40;2.27;;;2.07;;
1404;SDS011;697;51.114;6.542;2023-03-16T01:03:07;4.13;;;2.90;;
1404;SDS011;697;51.114;6.542;2023-03-16T01:05:38;2.73;;;2.50;;
1404;SDS011;697;51.114;6.542;2023-03-16T01:08:05;6.03;;;2.67;;
1404;SDS011;697;51.114;6.542;2023-03-16T01:10:33;2.80;;;2.50;;
1404;SDS011;697;51.114;6.542;2023-03-16T01:12:59;4.57;;;3.03;;
1404;SDS011;697;51.114;6.542;2023-03-16T01:15:27;4.43;;;2.20;;
1404;SDS011;697;51.114;6.542;2023-03-16T01:17:55;2.40;;;1.93;;
1404;SDS011;697;51.114;6.542;2023-03-16T01:20:22;2.17;;;1.90;;
1404;SDS011;697;51.114;6.542;2023-03-16T01:22:48;5.47;;;2.00;;
1404;SDS011;697;51.114;6.542;2023-03-16T01:25:15;2.20;;;1.97;;
1404;SDS011;697;51.114;6.542;2023-03-16T01:27:42;2.10;;;2.00;;
1404;SDS011;697;51.114;6.542;2023-03-16T01:30:10;2.87;;;1.83;;
1404;SDS011;697;51.114;6.542;2023-03-16T01:32:37;2.20;;;2.10;;
1404;SDS011;697;51.114;6.542;2023-03-16T01:35:06;2.10;;;1.90;;
1404;SDS011;697;51.114;6.542;2023-03-16T01:37:33;4.90;;;2.00;;
1404;SDS011;697;51.114;6.542;2023-03-16T01:40:00;4.00;;;2.50;;
1404;SDS011;697;51.114;6.542;2023-03-16T01:42:30;4.40;;;2.93;;
1404;SDS011;697;51.114;6.542;2023-03-16T01:44:57;2.97;;;2.23;;
1404;SDS011;697;51.114;6.542;2023-03-16T01:47:29;5.73;;;2.17;;
1404;SDS011;697;51.114;6.542;2023-03-16T01:50:02;4.07;;;2.30;;
1404;SDS011;697;51.114;6.542;2023-03-16T01:52:31;2.50;;;2.30;;
1404;SDS011;697;51.114;6.542;2023-03-16T01:55:01;2.40;;;2.17;;
1404;SDS011;697;51.114;6.542;2023-03-16T01:57:32;5.73;;;2.27;;
1404;SDS011;697;51.114;6.542;2023-03-16T02:00:03;10.43;;;2.30;;
1404;SDS011;697;51.114;6.542;2023-03-16T02:02:33;5.20;;;2.33;;
1404;SDS011;697;51.114;6.542;2023-03-16T02:05:04;2.70;;;1.97;;
1404;SDS011;697;51.114;6.542;2023-03-16T02:07:37;2.53;;;2.20;;
1404;SDS011;697;51.114;6.542;2023-03-16T02:10:08;2.90;;;2.33;;
1404;SDS011;697;51.114;6.542;2023-03-16T02:12:37;3.40;;;2.13;;
1404;SDS011;697;51.114;6.542;2023-03-16T02:15:04;2.80;;;2.43;;
1404;SDS011;697;51.114;6.542;2023-03-16T02:17:33;2.13;;;1.93;;
1404;SDS011;697;51.114;6.542;2023-03-16T02:20:05;2.43;;;1.90;;
1404;SDS011;697;51.114;6.542;2023-03-16T02:22:42;2.60;;;2.40;;
1404;SDS011;697;51.114;6.542;2023-03-16T02:25:12;4.50;;;2.50;;
1404;SDS011;697;51.114;6.542;2023-03-16T02:27:42;3.20;;;2.27;;
1404;SDS011;697;51.114;6.542;2023-03-16T02:30:18;2.23;;;2.00;;
1404;SDS011;697;51.114;6.542;2023-03-16T02:32:45;3.13;;;2.23;;
1404;SDS011;697;51.114;6.542;2023-03-16T02:35:15;2.47;;;2.27;;
1404;SDS011;697;51.114;6.542;2023-03-16T02:37:42;3.43;;;1.93;;
1404;SDS011;697;51.114;6.542;2023-03-16T02:40:15;3.47;;;2.10;;
1404;SDS011;697;51.114;6.542;2023-03-16T02:42:49;2.47;;;2.20;;
1404;SDS011;697;51.114;6.542;2023-03-16T02:45:30;2.57;;;2.20;;
1404;SDS011;697;51.114;6.542;2023-03-16T02:48:01;2.33;;;2.10;;
1404;SDS011;697;51.114;6.542;2023-03-16T02:50:33;2.77;;;2.27;;
1404;SDS011;697;51.114;6.542;2023-03-16T02:53:01;2.60;;;2.07;;
1404;SDS011;697;51.114;6.542;2023-03-16T02:55:27;3.53;;;1.93;;
1404;SDS011;697;51.114;6.542;2023-03-16T02:57:54;3.83;;;2.40;;
1404;SDS011;697;51.114;6.542;2023-03-16T03:00:21;2.10;;;1.70;;
1404;SDS011;697;51.114;6.542;2023-03-16T03:02:49;1.70;;;1.60;;
1404;SDS011;697;51.114;6.542;2023-03-16T03:05:16;3.20;;;2.23;;
1404;SDS011;697;51.114;6.542;2023-03-16T03:07:43;4.27;;;2.30;;
1404;SDS011;697;51.114;6.542;2023-03-16T03:10:09;5.03;;;2.50;;
1404;SDS011;697;51.114;6.542;2023-03-16T03:12:36;2.20;;;2.00;;
1404;SDS011;697;51.114;6.542;2023-03-16T03:15:03;2.60;;;2.23;;
1404;SDS011;697;51.114;6.542;2023-03-16T03:17:31;2.80;;;2.20;;
1404;SDS011;697;51.114;6.542;2023-03-16T03:19:59;2.43;;;2.00;;
1404;SDS011;697;51.114;6.542;2023-03-16T03:22:31;3.40;;;1.80;;
1404;SDS011;697;51.114;6.542;2023-03-16T03:24:58;2.53;;;1.93;;
1404;SDS011;697;51.114;6.542;2023-03-16T03:27:26;3.53;;;2.03;;
1404;SDS011;697;51.114;6.542;2023-03-16T03:29:53;2.53;;;2.00;;
1404;SDS011;697;51.114;6.542;2023-03-16T03:32:20;5.67;;;2.23;;
1404;SDS011;697;51.114;6.542;2023-03-16T03:34:47;2.53;;;2.10;;
1404;SDS011;697;51.114;6.542;2023-03-16T03:37:15;3.67;;;2.07;;
1404;SDS011;697;51.114;6.542;2023-03-16T03:39:42;2.30;;;2.10;;
1404;SDS011;697;51.114;6.542;2023-03-16T03:42:09;3.30;;;2.70;;
1404;SDS011;697;51.114;6.542;2023-03-16T03:44:36;5.70;;;2.60;;
1404;SDS011;697;51.114;6.542;2023-03-16T03:47:03;2.83;;;2.63;;
1404;SDS011;697;51.114;6.542;2023-03-16T03:49:30;3.10;;;2.80;;
1404;SDS011;697;51.114;6.542;2023-03-16T03:51:57;13.47;;;4.80;;
1404;SDS011;697;51.114;6.542;2023-03-16T03:54:27;4.40;;;3.37;;
1404;SDS011;697;51.114;6.542;2023-03-16T03:56:54;4.67;;;2.83;;
1404;SDS011;697;51.114;6.542;2023-03-16T03:59:20;5.57;;;3.50;;
1404;SDS011;697;51.114;6.542;2023-03-16T04:01:47;4.40;;;3.87;;
1404;SDS011;697;51.114;6.542;2023-03-16T04:04:14;6.23;;;3.57;;
1404;SDS011;697;51.114;6.542;2023-03-16T04:06:41;5.10;;;3.77;;
1404;SDS011;697;51.114;6.542;2023-03-16T04:09:08;6.90;;;3.73;;
1404;SDS011;697;51.114;6.542;2023-03-16T04:11:36;5.07;;;3.63;;
1404;SDS011;697;51.114;6.542;2023-03-16T04:14:03;5.23;;;3.67;;
1404;SDS011;697;51.114;6.542;2023-03-16T04:16:30;5.60;;;4.20;;
1404;SDS011;697;51.114;6.542;2023-03-16T04:18:58;5.50;;;4.17;;
1404;SDS011;697;51.114;6.542;2023-03-16T04:21:25;5.37;;;4.87;;
1404;SDS011;697;51.114;6.542;2023-03-16T04:23:52;6.50;;;5.07;;
1404;SDS011;697;51.114;6.542;2023-03-16T04:26:19;7.40;;;4.77;;
1404;SDS011;697;51.114;6.542;2023-03-16T04:28:48;7.60;;;4.30;;
1404;SDS011;697;51.114;6.542;2023-03-16T04:31:14;4.80;;;4.37;;
1404;SDS011;697;51.114;6.542;2023-03-16T04:33:41;4.40;;;4.00;;
1404;SDS011;697;51.114;6.542;2023-03-16T04:36:08;7.03;;;4.67;;
1404;SDS011;697;51.114;6.542;2023-03-16T04:38:36;5.83;;;4.20;;
1404;SDS011;697;51.114;6.542;2023-03-16T04:41:03;4.20;;;3.63;;
1404;SDS011;697;51.114;6.542;2023-03-16T04:43:31;4.13;;;3.63;;
1404;SDS011;697;51.114;6.542;2023-03-16T04:46:00;6.00;;;4.50;;
1404;SDS011;697;51.114;6.542;2023-03-16T04:48:28;4.57;;;4.17;;
1404;SDS011;697;51.114;6.542;2023-03-16T04:50:56;5.63;;;3.70;;
1404;SDS011;697;51.114;6.542;2023-03-16T04:53:22;4.63;;;3.93;;
1404;SDS011;697;51.114;6.542;2023-03-16T04:55:49;4.00;;;3.70;;
1404;SDS011;697;51.114;6.542;2023-03-16T04:58:16;5.13;;;4.07;;
1404;SDS011;697;51.114;6.542;2023-03-16T05:00:43;4.93;;;4.50;;
1404;SDS011;697;51.114;6.542;2023-03-16T05:03:11;10.77;;;4.50;;
1404;SDS011;697;51.114;6.542;2023-03-16T05:05:38;5.70;;;4.23;;
1404;SDS011;697;51.114;6.542;2023-03-16T05:08:06;5.73;;;3.87;;
1404;SDS011;697;51.114;6.542;2023-03-16T05:10:34;5.57;;;4.50;;
1404;SDS011;697;51.114;6.542;2023-03-16T05:13:01;4.40;;;3.93;;
1404;SDS011;697;51.114;6.542;2023-03-16T05:15:28;4.60;;;3.80;;
1404;SDS011;697;51.114;6.542;2023-03-16T05:17:55;5.90;;;5.30;;
1404;SDS011;697;51.114;6.542;2023-03-16T05:20:23;5.87;;;4.20;;
1404;SDS011;697;51.114;6.542;2023-03-16T05:22:51;6.90;;;3.10;;
1404;SDS011;697;51.114;6.542;2023-03-16T05:25:18;5.43;;;4.20;;
1404;SDS011;697;51.114;6.542;2023-03-16T05:27:46;4.80;;;4.30;;
1404;SDS011;697;51.114;6.542;2023-03-16T05:30:14;8.40;;;4.53;;
1404;SDS011;697;51.114;6.542;2023-03-16T05:32:42;4.97;;;4.03;;
1404;SDS011;697;51.114;6.542;2023-03-16T05:35:10;5.23;;;4.10;;
1404;SDS011;697;51.114;6.542;2023-03-16T05:37:39;5.83;;;4.43;;
1404;SDS011;697;51.114;6.542;2023-03-16T05:40:06;4.20;;;3.80;;
1404;SDS011;697;51.114;6.542;2023-03-16T05:42:41;8.17;;;4.63;;
1404;SDS011;697;51.114;6.542;2023-03-16T05:45:09;5.30;;;4.30;;
1404;SDS011;697;51.114;6.542;2023-03-16T05:47:36;6.23;;;3.80;;
1404;SDS011;697;51.114;6.542;2023-03-16T05:50:03;5.13;;;3.50;;
1404;SDS011;697;51.114;6.542;2023-03-16T05:52:30;6.63;;;3.23;;
1404;SDS011;697;51.114;6.542;2023-03-16T05:54:59;4.33;;;3.13;;
1404;SDS011;697;51.114;6.542;2023-03-16T05:57:25;5.90;;;3.60;;
1404;SDS011;697;51.114;6.542;2023-03-16T05:59:53;4.00;;;3.30;;
1404;SDS011;697;51.114;6.542;2023-03-16T06:02:19;4.30;;;3.20;;
1404;SDS011;697;51.114;6.542;2023-03-16T06:04:46;5.20;;;3.60;;
1404;SDS011;697;51.114;6.542;2023-03-16T06:07:13;3.37;;;3.03;;
1404;SDS011;697;51.114;6.542;2023-03-16T06:09:39;5.70;;;2.90;;
1404;SDS011;697;51.114;6.542;2023-03-16T06:12:08;6.00;;;3.07;;
1404;SDS011;697;51.114;6.542;2023-03-16T06:14:35;4.83;;;3.90;;
1404;SDS011;697;51.114;6.542;2023-03-16T06:17:02;3.30;;;2.70;;
1404;SDS011;697;51.114;6.542;2023-03-16T06:19:28;3.77;;;2.63;;
1404;SDS011;697;51.114;6.542;2023-03-16T06:21:55;3.17;;;2.90;;
1404;SDS011;697;51.114;6.542;2023-03-16T06:24:22;5.80;;;2.70;;
1404;SDS011;697;51.114;6.542;2023-03-16T06:26:49;6.23;;;3.40;;
1404;SDS011;697;51.114;6.542;2023-03-16T06:29:17;5.63;;;3.60;;
1404;SDS011;697;51.114;6.542;2023-03-16T06:31:43;3.50;;;3.20;;
1404;SDS011;697;51.114;6.542;2023-03-16T06:34:10;5.17;;;3.60;;
1404;SDS011;697;51.114;6.542;2023-03-16T06:36:37;3.23;;;2.90;;
1404;SDS011;697;51.114;6.542;2023-03-16T06:39:03;4.93;;;3.27;;
1404;SDS011;697;51.114;6.542;2023-03-16T06:41:30;6.40;;;3.63;;
1404;SDS011;697;51.114;6.542;2023-03-16T06:43:58;6.27;;;4.10;;
1404;SDS011;697;51.114;6.542;2023-03-16T06:46:26;6.83;;;3.87;;
1404;SDS011;697;51.114;6.542;2023-03-16T06:48:53;3.90;;;3.57;;
1404;SDS011;697;51.114;6.542;2023-03-16T06:51:20;11.97;;;4.30;;
1404;SDS011;697;51.114;6.542;2023-03-16T06:53:47;4.93;;;3.70;;
1404;SDS011;697;51.114;6.542;2023-03-16T06:56:13;4.80;;;3.50;;
1404;SDS011;697;51.114;6.542;2023-03-16T06:58:40;7.00;;;4.23;;
1404;SDS011;697;51.114;6.542;2023-03-16T07:01:07;4.83;;;3.60;;
1404;SDS011;697;51.114;6.542;2023-03-16T07:03:35;5.10;;;4.23;;
1404;SDS011;697;51.114;6.542;2023-03-16T07:06:01;4.60;;;4.00;;
1404;SDS011;697;51.114;6.542;2023-03-16T07:08:28;3.93;;;3.40;;
1404;SDS011;697;51.114;6.542;2023-03-16T07:10:55;4.67;;;3.70;;
1404;SDS011;697;51.114;6.542;2023-03-16T07:13:22;4.47;;;3.63;;
1404;SDS011;697;51.114;6.542;2023-03-16T07:15:48;6.13;;;4.43;;
1404;SDS011;697;51.114;6.542;2023-03-16T07:18:16;4.67;;;4.17;;
1404;SDS011;697;51.114;6.542;2023-03-16T07:20:44;5.90;;;3.83;;
1404;SDS011;697;51.114;6.542;2023-03-16T07:23:11;4.90;;;3.80;;
1404;SDS011;697;51.114;6.542;2023-03-16T07:25:38;3.60;;;3.33;;
1404;SDS011;697;51.114;6.542;2023-03-16T07:28:05;5.73;;;3.30;;
1404;SDS011;697;51.114;6.542;2023-03-16T07:30:32;4.57;;;3.83;;
1404;SDS011;697;51.114;6.542;2023-03-16T07:32:58;5.00;;;3.57;;
1404;SDS011;697;51.114;6.542;2023-03-16T07:35:25;5.10;;;3.30;;
1404;SDS011;697;51.114;6.542;2023-03-16T07:37:53;6.70;;;4.07;;
1404;SDS011;697;51.114;6.542;2023-03-16T07:40:20;4.50;;;4.10;;
1404;SDS011;697;51.114;6.542;2023-03-16T07:42:47;4.23;;;3.20;;
1404;SDS011;697;51.114;6.542;2023-03-16T07:45:14;4.00;;;3.27;;
1404;SDS011;697;51.114;6.542;2023-03-16T07:47:42;4.00;;;3.60;;
1404;SDS011;697;51.114;6.542;2023-03-16T07:50:09;8.63;;;4.23;;
1404;SDS011;697;51.114;6.542;2023-03-16T07:52:37;4.97;;;3.43;;
1404;SDS011;697;51.114;6.542;2023-03-16T07:55:06;3.73;;;3.43;;
1404;SDS011;697;51.114;6.542;2023-03-16T07:57:33;3.63;;;3.03;;
1404;SDS011;697;51.114;6.542;2023-03-16T08:00:00;4.80;;;4.20;;
1404;SDS011;697;51.114;6.542;2023-03-16T08:02:29;4.30;;;3.60;;
1404;SDS011;697;51.114;6.542;2023-03-16T08:04:56;6.37;;;3.57;;
1404;SDS011;697;51.114;6.542;2023-03-16T08:07:23;5.37;;;3.83;;
1404;SDS011;697;51.114;6.542;2023-03-16T08:09:50;6.57;;;4.13;;
1404;SDS011;697;51.114;6.542;2023-03-16T08:12:18;4.83;;;4.03;;
1404;SDS011;697;51.114;6.542;2023-03-16T08:14:45;4.20;;;3.73;;
1404;SDS011;697;51.114;6.542;2023-03-16T08:17:11;4.40;;;3.50;;
1404;SDS011;697;51.114;6.542;2023-03-16T08:19:38;4.87;;;4.30;;
1404;SDS011;697;51.114;6.542;2023-03-16T08:22:07;4.60;;;3.90;;
1404;SDS011;697;51.114;6.542;2023-03-16T08:24:34;8.43;;;3.70;;
1404;SDS011;697;51.114;6.542;2023-03-16T08:27:01;5.27;;;4.23;;
1404;SDS011;697;51.114;6.542;2023-03-16T08:29:30;5.53;;;4.00;;
1404;SDS011;697;51.114;6.542;2023-03-16T08:31:58;4.27;;;3.60;;
1404;SDS011;697;51.114;6.542;2023-03-16T08:34:25;4.77;;;4.20;;
1404;SDS011;697;51.114;6.542;2023-03-16T08:36:52;4.30;;;3.70;;
1404;SDS011;697;51.114;6.542;2023-03-16T08:39:19;5.93;;;4.33;;
1404;SDS011;697;51.114;6.542;2023-03-16T08:41:46;4.83;;;3.57;;
1404;SDS011;697;51.114;6.542;2023-03-16T08:44:13;4.77;;;4.00;;
1404;SDS011;697;51.114;6.542;2023-03-16T08:46:42;4.90;;;4.10;;
1404;SDS011;697;51.114;6.542;2023-03-16T08:49:09;4.97;;;3.77;;
1404;SDS011;697;51.114;6.542;2023-03-16T08:51:37;5.20;;;3.70;;
1404;SDS011;697;51.114;6.542;2023-03-16T08:54:04;7.33;;;3.70;;
1404;SDS011;697;51.114;6.542;2023-03-16T08:56:31;3.50;;;3.20;;
1404;SDS011;697;51.114;6.542;2023-03-16T08:58:58;4.03;;;3.70;;
1404;SDS011;697;51.114;6.542;2023-03-16T09:01:24;4.90;;;3.50;;
1404;SDS011;697;51.114;6.542;2023-03-16T09:03:52;5.10;;;3.43;;
1404;SDS011;697;51.114;6.542;2023-03-16T09:06:19;4.10;;;3.60;;
1404;SDS011;697;51.114;6.542;2023-03-16T09:08:46;5.80;;;3.47;;
1404;SDS011;697;51.114;6.542;2023-03-16T09:11:14;4.43;;;3.40;;
1404;SDS011;697;51.114;6.542;2023-03-16T09:13:42;4.20;;;3.67;;
1404;SDS011;697;51.114;6.542;2023-03-16T09:16:10;3.83;;;3.50;;
1404;SDS011;697;51.114;6.542;2023-03-16T09:18:39;3.70;;;3.37;;
1404;SDS011;697;51.114;6.542;2023-03-16T09:21:08;6.10;;;3.87;;
1404;SDS011;697;51.114;6.542;2023-03-16T09:23:37;4.67;;;3.50;;
1404;SDS011;697;51.114;6.542;2023-03-16T09:26:05;5.47;;;3.77;;
1404;SDS011;697;51.114;6.542;2023-03-16T09:28:33;4.60;;;3.40;;
1404;SDS011;697;51.114;6.542;2023-03-16T09:31:02;9.10;;;4.77;;
1404;SDS011;697;51.114;6.542;2023-03-16T09:33:29;5.40;;;3.80;;
1404;SDS011;697;51.114;6.542;2023-03-16T09:35:57;6.50;;;4.90;;
1404;SDS011;697;51.114;6.542;2023-03-16T09:38:27;5.17;;;3.90;;
1404;SDS011;697;51.114;6.542;2023-03-16T09:40:56;5.20;;;4.10;;
1404;SDS011;697;51.114;6.542;2023-03-16T09:46:19;6.93;;;4.90;;
1404;SDS011;697;51.114;6.542;2023-03-16T09:48:51;7.77;;;4.57;;
1404;SDS011;697;51.114;6.542;2023-03-16T09:51:22;5.67;;;4.23;;
1404;SDS011;697;51.114;6.542;2023-03-16T09:54:00;5.07;;;4.47;;
1404;SDS011;697;51.114;6.542;2023-03-16T09:56:33;5.83;;;4.27;;
1404;SDS011;697;51.114;6.542;2023-03-16T09:59:07;5.43;;;4.80;;
1404;SDS011;697;51.114;6.542;2023-03-16T10:01:38;6.13;;;4.40;;
1404;SDS011;697;51.114;6.542;2023-03-16T10:04:13;7.33;;;4.83;;
1404;SDS011;697;51.114;6.542;2023-03-16T10:06:47;6.53;;;4.80;;
1404;SDS011;697;51.114;6.542;2023-03-16T10:09:25;9.23;;;5.10;;
1404;SDS011;697;51.114;6.542;2023-03-16T10:11:57;9.83;;;4.30;;
1404;SDS011;697;51.114;6.542;2023-03-16T10:14:27;6.20;;;4.50;;
1404;SDS011;697;51.114;6.542;2023-03-16T10:16:59;6.20;;;4.97;;
1404;SDS011;697;51.114;6.542;2023-03-16T10:19:30;5.83;;;4.47;;
1404;SDS011;697;51.114;6.542;2023-03-16T10:22:04;5.57;;;4.20;;
1404;SDS011;697;51.114;6.542;2023-03-16T10:24:42;4.23;;;3.87;;
1404;SDS011;697;51.114;6.542;2023-03-16T10:27:18;5.83;;;3.80;;
1404;SDS011;697;51.114;6.542;2023-03-16T10:29:48;3.37;;;3.13;;
1404;SDS011;697;51.114;6.542;2023-03-16T10:32:15;4.50;;;3.67;;
1404;SDS011;697;51.114;6.542;2023-03-16T10:34:44;5.77;;;3.30;;
1404;SDS011;697;51.114;6.542;2023-03-16T10:37:17;7.20;;;3.80;;
1404;SDS011;697;51.114;6.542;2023-03-16T10:39:47;4.90;;;4.13;;
1404;SDS011;697;51.114;6.542;2023-03-16T10:42:14;3.70;;;3.40;;
1404;SDS011;697;51.114;6.542;2023-03-16T10:44:44;3.43;;;3.13;;
1404;SDS011;697;51.114;6.542;2023-03-16T10:47:15;5.47;;;3.40;;
1404;SDS011;697;51.114;6.542;2023-03-16T10:49:44;4.23;;;3.60;;
1404;SDS011;697;51.114;6.542;2023-03-16T10:52:15;5.33;;;3.63;;
1404;SDS011;697;51.114;6.542;2023-03-16T10:54:49;4.03;;;3.50;;
1404;SDS011;697;51.114;6.542;2023-03-16T10:57:23;6.33;;;3.83;;
1404;SDS011;697;51.114;6.542;2023-03-16T10:59:52;4.20;;;3.77;;
1404;SDS011;697;51.114;6.542;2023-03-16T11:02:21;5.90;;;4.00;;
1404;SDS011;697;51.114;6.542;2023-03-16T11:04:51;5.73;;;3.83;;
1404;SDS011;697;51.114;6.542;2023-03-16T11:07:20;5.53;;;3.13;;
1404;SDS011;697;51.114;6.542;2023-03-16T11:09:49;3.30;;;2.57;;
1404;SDS011;697;51.114;6.542;2023-03-16T11:12:20;4.53;;;2.87;;
1404;SDS011;697;51.114;6.542;2023-03-16T11:14:49;3.50;;;2.30;;
1404;SDS011;697;51.114;6.542;2023-03-16T11:17:16;5.83;;;3.03;;
1404;SDS011;697;51.114;6.542;2023-03-16T11:19:51;4.50;;;3.10;;
1404;SDS011;697;51.114;6.542;2023-03-16T11:22:20;3.37;;;2.40;;
1404;SDS011;697;51.114;6.542;2023-03-16T11:24:51;2.53;;;2.33;;
1404;SDS011;697;51.114;6.542;2023-03-16T11:27:22;4.80;;;2.20;;
1404;SDS011;697;51.114;6.542;2023-03-16T11:29:54;2.23;;;1.90;;
1404;SDS011;697;51.114;6.542;2023-03-16T11:32:28;4.33;;;2.17;;
1404;SDS011;697;51.114;6.542;2023-03-16T11:34:58;2.50;;;2.00;;
1404;SDS011;697;51.114;6.542;2023-03-16T11:37:29;3.63;;;2.00;;
1404;SDS011;697;51.114;6.542;2023-03-16T11:40:13;3.13;;;1.70;;
1404;SDS011;697;51.114;6.542;2023-03-16T11:42:54;2.43;;;2.23;;
1404;SDS011;697;51.114;6.542;2023-03-16T11:45:31;4.97;;;2.10;;
1404;SDS011;697;51.114;6.542;2023-03-16T11:50:59;2.13;;;2.03;;
1404;SDS011;697;51.114;6.542;2023-03-16T11:53:32;3.50;;;2.10;;
1404;SDS011;697;51.114;6.542;2023-03-16T11:56:13;3.43;;;1.83;;
1404;SDS011;697;51.114;6.542;2023-03-16T11:58:59;2.23;;;1.60;;
1404;SDS011;697;51.114;6.542;2023-03-16T12:01:53;3.33;;;1.87;;
1404;SDS011;697;51.114;6.542;2023-03-16T12:04:33;2.57;;;1.90;;
1404;SDS011;697;51.114;6.542;2023-03-16T12:07:12;5.50;;;2.10;;
1404;SDS011;697;51.114;6.542;2023-03-16T12:09:53;3.33;;;2.10;;
1404;SDS011;697;51.114;6.542;2023-03-16T12:12:35;2.50;;;1.70;;
1404;SDS011;697;51.114;6.542;2023-03-16T12:15:16;5.07;;;2.13;;
1404;SDS011;697;51.114;6.542;2023-03-16T12:17:49;3.50;;;2.10;;
1404;SDS011;697;51.114;6.542;2023-03-16T12:20:20;2.10;;;1.90;;
1404;SDS011;697;51.114;6.542;2023-03-16T12:22:50;3.37;;;2.03;;
1404;SDS011;697;51.114;6.542;2023-03-16T12:25:21;2.63;;;2.10;;
1404;SDS011;697;51.114;6.542;2023-03-16T12:27:59;3.40;;;2.30;;
1404;SDS011;697;51.114;6.542;2023-03-16T12:30:33;4.20;;;2.13;;
1404;SDS011;697;51.114;6.542;2023-03-16T12:33:10;7.13;;;2.00;;
1404;SDS011;697;51.114;6.542;2023-03-16T12:35:44;2.30;;;1.70;;
1404;SDS011;697;51.114;6.542;2023-03-16T12:38:17;1.97;;;1.77;;
1404;SDS011;697;51.114;6.542;2023-03-16T12:41:01;3.43;;;1.80;;
1404;SDS011;697;51.114;6.542;2023-03-16T12:43:46;1.60;;;1.50;;
1404;SDS011;697;51.114;6.542;2023-03-16T12:46:27;2.83;;;1.50;;
1404;SDS011;697;51.114;6.542;2023-03-16T12:49:07;4.30;;;1.73;;
1404;SDS011;697;51.114;6.542;2023-03-16T12:51:35;2.70;;;1.63;;
1404;SDS011;697;51.114;6.542;2023-03-16T12:54:03;4.10;;;1.60;;
1404;SDS011;697;51.114;6.542;2023-03-16T12:56:32;4.20;;;1.50;;
1404;SDS011;697;51.114;6.542;2023-03-16T12:59:03;2.67;;;1.40;;
1404;SDS011;697;51.114;6.542;2023-03-16T13:01:35;2.77;;;1.80;;
1404;SDS011;697;51.114;6.542;2023-03-16T13:04:06;3.73;;;1.90;;
1404;SDS011;697;51.114;6.542;2023-03-16T13:06:41;5.53;;;1.73;;
1404;SDS011;697;51.114;6.542;2023-03-16T13:09:10;2.60;;;1.50;;
1404;SDS011;697;51.114;6.542;2023-03-16T13:11:43;4.57;;;1.87;;
1404;SDS011;697;51.114;6.542;2023-03-16T13:14:16;2.90;;;1.63;;
1404;SDS011;697;51.114;6.542;2023-03-16T13:17:02;3.10;;;1.80;;
1404;SDS011;697;51.114;6.542;2023-03-16T13:19:31;2.20;;;1.40;;
1404;SDS011;697;51.114;6.542;2023-03-16T13:22:03;2.80;;;1.63;;
1404;SDS011;697;51.114;6.542;2023-03-16T13:24:48;2.10;;;1.30;;
1404;SDS011;697;51.114;6.542;2023-03-16T13:27:22;1.57;;;1.30;;
1404;SDS011;697;51.114;6.542;2023-03-16T13:29:54;1.90;;;1.27;;
1404;SDS011;697;51.114;6.542;2023-03-16T13:32:23;2.63;;;1.60;;
1404;SDS011;697;51.114;6.542;2023-03-16T13:34:52;1.47;;;1.17;;
1404;SDS011;697;51.114;6.542;2023-03-16T13:37:23;1.80;;;1.13;;
1404;SDS011;697;51.114;6.542;2023-03-16T13:39:53;1.63;;;0.97;;
1404;SDS011;697;51.114;6.542;2023-03-16T13:42:21;1.17;;;1.00;;
1404;SDS011;697;51.114;6.542;2023-03-16T13:44:55;1.83;;;1.00;;
1404;SDS011;697;51.114;6.542;2023-03-16T13:47:23;1.47;;;1.10;;
1404;SDS011;697;51.114;6.542;2023-03-16T13:49:53;5.00;;;1.10;;
1404;SDS011;697;51.114;6.542;2023-03-16T13:52:23;2.10;;;0.80;;
1404;SDS011;697;51.114;6.542;2023-03-16T13:54:52;2.00;;;1.10;;
1404;SDS011;697;51.114;6.542;2023-03-16T13:57:20;2.63;;;1.30;;
1404;SDS011;697;51.114;6.542;2023-03-16T13:59:49;3.33;;;1.53;;
1404;SDS011;697;51.114;6.542;2023-03-16T14:02:24;3.27;;;1.70;;
1404;SDS011;697;51.114;6.542;2023-03-16T14:04:50;3.83;;;2.00;;
1404;SDS011;697;51.114;6.542;2023-03-16T14:07:18;2.60;;;1.60;;
1404;SDS011;697;51.114;6.542;2023-03-16T14:09:48;2.27;;;1.60;;
1404;SDS011;697;51.114;6.542;2023-03-16T14:12:18;2.40;;;1.30;;
1404;SDS011;697;51.114;6.542;2023-03-16T14:14:45;2.67;;;1.17;;
1404;SDS011;697;51.114;6.542;2023-03-16T14:17:15;3.67;;;1.87;;
1404;SDS011;697;51.114;6.542;2023-03-16T14:19:46;2.70;;;1.23;;
1404;SDS011;697;51.114;6.542;2023-03-16T14:22:15;1.97;;;1.50;;
1404;SDS011;697;51.114;6.542;2023-03-16T14:24:44;1.90;;;1.03;;
1404;SDS011;697;51.114;6.542;2023-03-16T14:27:24;1.57;;;1.00;;
1404;SDS011;697;51.114;6.542;2023-03-16T14:29:58;1.47;;;1.07;;
1404;SDS011;697;51.114;6.542;2023-03-16T14:32:26;2.80;;;1.00;;
1404;SDS011;697;51.114;6.542;2023-03-16T14:35:13;2.40;;;1.37;;
1404;SDS011;697;51.114;6.542;2023-03-16T14:37:42;1.63;;;1.27;;
1404;SDS011;697;51.114;6.542;2023-03-16T14:40:20;5.20;;;1.20;;
1404;SDS011;697;51.114;6.542;2023-03-16T14:42:54;1.87;;;1.50;;
1404;SDS011;697;51.114;6.542;2023-03-16T14:45:25;2.63;;;1.67;;
1404;SDS011;697;51.114;6.542;2023-03-16T14:48:00;3.00;;;1.40;;
1404;SDS011;697;51.114;6.542;2023-03-16T14:50:31;3.00;;;1.13;;
1404;SDS011;697;51.114;6.542;2023-03-16T14:52:58;2.20;;;1.60;;
1404;SDS011;697;51.114;6.542;2023-03-16T14:55:27;2.03;;;1.17;;
1404;SDS011;697;51.114;6.542;2023-03-16T14:57:54;1.30;;;0.90;;
1404;SDS011;697;51.114;6.542;2023-03-16T15:00:21;1.57;;;0.70;;
1404;SDS011;697;51.114;6.542;2023-03-16T15:02:53;1.63;;;1.00;;
1404;SDS011;697;51.114;6.542;2023-03-16T15:05:24;1.43;;;0.90;;
1404;SDS011;697;51.114;6.542;2023-03-16T15:07:57;3.67;;;0.80;;
1404;SDS011;697;51.114;6.542;2023-03-16T15:10:24;3.73;;;1.13;;
1404;SDS011;697;51.114;6.542;2023-03-16T15:12:53;1.00;;;0.80;;
1404;SDS011;697;51.114;6.542;2023-03-16T15:15:28;1.77;;;0.90;;
1404;SDS011;697;51.114;6.542;2023-03-16T15:17:55;1.60;;;1.20;;
1404;SDS011;697;51.114;6.542;2023-03-16T15:20:23;5.40;;;1.40;;
1404;SDS011;697;51.114;6.542;2023-03-16T15:22:57;3.43;;;1.77;;
1404;SDS011;697;51.114;6.542;2023-03-16T15:25:27;3.63;;;1.10;;
1404;SDS011;697;51.114;6.542;2023-03-16T15:28:02;2.80;;;1.50;;
1404;SDS011;697;51.114;6.542;2023-03-16T15:30:35;3.00;;;1.60;;
1404;SDS011;697;51.114;6.542;2023-03-16T15:33:03;2.80;;;1.50;;
1404;SDS011;697;51.114;6.542;2023-03-16T15:35:29;2.83;;;1.10;;
1404;SDS011;697;51.114;6.542;2023-03-16T15:37:58;2.40;;;1.47;;
1404;SDS011;697;51.114;6.542;2023-03-16T15:40:28;1.50;;;1.20;;
1404;SDS011;697;51.114;6.542;2023-03-16T15:42:55;3.60;;;1.20;;
1404;SDS011;697;51.114;6.542;2023-03-16T15:45:22;2.27;;;1.30;;
1404;SDS011;697;51.114;6.542;2023-03-16T15:47:50;2.10;;;1.10;;
1404;SDS011;697;51.114;6.542;2023-03-16T15:50:19;4.53;;;1.27;;